Avisos AEMET Campiña SevillanaSin Avisos+ INFO
Sevilla, Andalucía, España
Linguagem: pt English Français Deutsch Italiano Português Español
 

Nearby METAR Reports

 

LEZL - Sevilla, Spain
Distance from station: ENE 8km
Actualizado: 26/05/2024 22:30
Céu limpo
Céu limpo
 Vento de SW
Vento: SW 17 km/h
Temperatura: 26°C
Ponto de Orvalho: 13°C
Humidade: 45%
Barómetro: 1014 hPa
Resumo: Céu limpo
Visibility: greater than 10 km
2024/05/26 20:30 LEZL 262030Z 22009KT CAVOK 26/13 Q1014 NOSIG
LEMO - Morón, Spain
Distance from station: SE 43km
Actualizado: 26/05/2024 23:00
Céu limpo
Céu limpo
 Vento de SSW
Vento: SSW 13 km/h
Temperatura: 22°C
Ponto de Orvalho: 14°C
Humidade: 61%
Barómetro: 1015 hPa
Resumo: Céu limpo
Visibility: greater than 10 km
2024/05/26 21:00 LEMO 262100Z 21007KT 180V250 CAVOK 22/14 Q1015 NOSIG
LEJR - Jeréz, Spain
Distance from station: S 71km
Actualizado: 26/05/2024 23:00
Céu limpo
Céu limpo
 Vento de varies
Vento: varies 4 km/h
Temperatura: 21°C
Ponto de Orvalho: 15°C
Humidade: 69%
Barómetro: 1016 hPa
Resumo: Céu limpo
Visibility: greater than 10 km
2024/05/26 21:00 LEJR 262100Z VRB02KT CAVOK 21/15 Q1016
 
LERT - Rota, Spain
Distance from station: SSW 89km
Actualizado: 26/05/2024 23:00
Céu limpo
Céu limpo
 Vento de NW
Vento: NW 6 km/h
Temperatura: 20°C
Ponto de Orvalho: 16°C
Humidade: 78%
Barómetro: 1016 hPa
Resumo: Céu limpo
Visibility: greater than 10 km
2024/05/26 21:00 LERT 262100Z 32003KT 290V020 CAVOK 20/16 Q1016 NOSIG
LEMG - Málaga, Spain
Distance from station: ESE 157km
Actualizado: 26/05/2024 23:00
Céu limpo
Céu limpo
 Vento de SE
Vento: SE 9 km/h
Temperatura: 19°C
Ponto de Orvalho: 16°C
Humidade: 83%
Barómetro: 1016 hPa
Resumo: Céu limpo
Visibility: greater than 10 km
2024/05/26 21:00 LEMG 262100Z 14005KT CAVOK 19/16 Q1016 NOSIG
LEBA - Córdoba, Spain
Distance from station: ENE 115km
Actualizado: 26/05/2024 23:00
Céu limpo
Céu limpo
 Vento de WSW
Vento: WSW 7 km/h
Temperatura: 23°C
Ponto de Orvalho: 12°C
Humidade: 50%
Barómetro: 1014 hPa
Resumo: Céu limpo
Visibility: greater than 10 km
2024/05/26 21:00 LEBA 262100Z AUTO 24004KT CAVOK 23/12 Q1014
 
LEGR - Granada, Spain
Distance from station: E 198km
Actualizado: 26/05/2024 23:00
Céu limpo
Céu limpo
 Vento de varies
Vento: varies 2 km/h
Temperatura: 25°C
Ponto de Orvalho: 10°C
Humidade: 39%
Barómetro: 1018 hPa
Resumo: Céu limpo
Visibility: greater than 10 km
2024/05/26 21:00 LEGR 262100Z VRB01KT CAVOK 25/10 Q1018
LEAM - Almería, Spain
Distance from station: E 326km
Actualizado: 26/05/2024 23:00
Céu limpo
Céu limpo
 Vento de calm
Vento: Calmo
Temperatura: 20°C
Ponto de Orvalho: 18°C
Humidade: 88%
Barómetro: 1015 hPa
Resumo: Céu limpo
Visibility: greater than 10 km
2024/05/26 21:00 LEAM 262100Z AUTO 00000KT CAVOK 20/18 Q1015
LEMD - Madrid/Barajas, Spain
Distance from station: NNE 402km
Actualizado: 26/05/2024 23:00
Céu limpo
Céu limpo
 Vento de WNW
Vento: WNW 13 km/h
Temperatura: 24°C
Ponto de Orvalho: 9°C
Humidade: 39%
Barómetro: 1016 hPa
Resumo: Céu limpo
Visibility: greater than 10 km
2024/05/26 21:00 LEMD 262100Z 29007KT 260V330 CAVOK 24/09 Q1016 NOSIG
 
LEVD - Valladolid, Spain
Distance from station: N 492km
Actualizado: 26/05/2024 23:00
Céu limpo
Céu limpo
 Vento de N
Vento: N 13 km/h
Temperatura: 12°C
Ponto de Orvalho: 7°C
Humidade: 72%
Barómetro: 1019 hPa
Resumo: Céu limpo
Visibility: greater than 10 km
2024/05/26 21:00 LEVD 262100Z AUTO 01007KT 330V060 CAVOK 12/07 Q1019
LEBL - Barcelona, Spain
Distance from station: NE 816km
Actualizado: 26/05/2024 23:00
Few Clouds
Few Clouds
 Vento de NE
Vento: NE 11 km/h
Temperatura: 20°C
Ponto de Orvalho: 17°C
Humidade: 83%
Barómetro: 1018 hPa
Clouds: Few Clouds
Visibility: 10 km
Cloud details: Few Clouds 610 m
2024/05/26 21:00 LEBL 262100Z 05006KT 010V080 9999 FEW020 20/17 Q1018 NOSIG
LEVC - Valencia, Spain
Distance from station: ENE 535km
Actualizado: 26/05/2024 23:00
Parcialmente nublado
Parcialmente nublado
 Vento de NE
Vento: NE 11 km/h
Temperatura: 21°C
Ponto de Orvalho: 18°C
Humidade: 83%
Barómetro: 1017 hPa
Clouds: Parcialmente nublado
Visibility: 10 km
Cloud details: Few Clouds 305 m
Parcialmente nublado 610 m
2024/05/26 21:00 LEVC 262100Z 05006KT 020V140 9999 FEW010 SCT020 21/18 Q1017 NOSIG